Time;durP1;ratioP1;P1;durP2;ratioP2;P2;SDS_P1;SDS_P2;PMS_P1;PMS_P2;Temp;Humidity;BMP_temperature;BMP_pressure;BME280_temperature;BME280_humidity;BME280_pressure;Samples;Min_cycle;Max_cycle;Signal;HPM_P1;HPM_P2
2021/11/22 00:00:53;;;;;;;11.68;7.88;;;4.90;99.90;;;;;;5030518;28;20405;-81
2021/11/22 00:03:20;;;;;;;11.98;7.88;;;5.00;99.90;;;;;;5011612;28;20389;-83
2021/11/22 00:05:46;;;;;;;15.35;8.48;;;5.00;99.90;;;;;;5028839;28;20405;-83
2021/11/22 00:08:14;;;;;;;10.03;6.90;;;5.00;99.90;;;;;;5029654;28;20377;-83
2021/11/22 00:10:40;;;;;;;13.52;7.72;;;5.00;99.90;;;;;;5012735;28;20375;-85
2021/11/22 00:13:07;;;;;;;11.02;7.55;;;5.10;99.90;;;;;;5028785;28;20413;-82
2021/11/22 00:15:34;;;;;;;9.30;6.75;;;5.20;99.90;;;;;;5032082;28;20390;-84
2021/11/22 00:18:00;;;;;;;14.90;7.43;;;5.20;99.90;;;;;;5029110;28;20414;-80
2021/11/22 00:20:26;;;;;;;11.93;6.80;;;5.20;99.90;;;;;;5012060;28;20416;-83
2021/11/22 00:22:52;;;;;;;10.83;6.90;;;5.20;99.90;;;;;;5029938;28;20373;-85
2021/11/22 00:25:20;;;;;;;10.40;6.53;;;5.20;99.90;;;;;;5012194;28;20378;-83
2021/11/22 00:27:46;;;;;;;10.20;6.65;;;5.30;99.90;;;;;;5012106;28;20386;-83
2021/11/22 00:30:14;;;;;;;10.52;6.93;;;5.30;99.90;;;;;;5029533;28;20438;-82
2021/11/22 00:32:42;;;;;;;10.63;6.88;;;5.30;99.90;;;;;;5029537;28;20385;-82
2021/11/22 00:35:08;;;;;;;15.27;7.90;;;5.40;99.90;;;;;;5029436;28;20397;-82
2021/11/22 00:37:37;;;;;;;13.60;7.97;;;5.40;99.90;;;;;;5012282;28;20731;-84
2021/11/22 00:40:11;;;;;;;17.30;7.68;;;5.40;99.90;;;;;;5012019;28;20381;-81
2021/11/22 00:42:38;;;;;;;14.02;7.25;;;5.40;99.90;;;;;;5029482;28;20412;-83
2021/11/22 00:45:06;;;;;;;9.93;6.78;;;5.40;99.90;;;;;;5028621;28;20679;-82
2021/11/22 00:47:33;;;;;;;14.93;7.40;;;5.50;99.90;;;;;;4993456;28;20472;-82
2021/11/22 00:49:59;;;;;;;11.68;6.25;;;5.50;99.90;;;;;;5010329;28;20392;-82
2021/11/22 00:52:25;;;;;;;17.92;6.53;;;5.50;99.90;;;;;;5011475;28;20470;-84
2021/11/22 00:54:52;;;;;;;10.70;6.15;;;5.60;99.90;;;;;;5011521;28;20394;-83
2021/11/22 00:57:18;;;;;;;15.63;6.70;;;5.60;99.90;;;;;;5012079;28;20382;-80
2021/11/22 00:59:43;;;;;;;10.90;6.70;;;5.60;99.90;;;;;;5029519;28;20380;-82
2021/11/22 01:02:09;;;;;;;11.45;6.22;;;5.40;99.90;;;;;;5029213;28;20402;-83
2021/11/22 01:04:41;;;;;;;11.88;5.72;;;5.50;99.90;;;;;;5011808;28;20462;-81
2021/11/22 01:07:10;;;;;;;13.32;6.07;;;5.40;99.90;;;;;;5027559;28;20408;-81
2021/11/22 01:09:35;;;;;;;10.55;5.90;;;5.40;99.90;;;;;;5011734;28;20444;-82
2021/11/22 01:12:02;;;;;;;10.73;5.87;;;5.30;99.90;;;;;;5029232;28;20903;-82
2021/11/22 01:14:28;;;;;;;9.10;5.55;;;5.30;99.90;;;;;;4994906;28;20401;-82
2021/11/22 01:16:55;;;;;;;11.05;5.70;;;5.50;99.90;;;;;;5011411;28;20394;-82
2021/11/22 01:19:21;;;;;;;10.25;5.22;;;5.50;99.90;;;;;;5011106;28;20496;-83
2021/11/22 01:21:47;;;;;;;11.20;5.70;;;5.60;99.90;;;;;;5029201;28;20424;-83
2021/11/22 01:24:13;;;;;;;9.73;5.30;;;5.50;99.90;;;;;;5028714;28;20413;-81
2021/11/22 01:26:40;;;;;;;11.10;5.32;;;5.40;99.90;;;;;;5029081;28;20439;-82
2021/11/22 01:29:06;;;;;;;11.90;5.72;;;5.30;99.90;;;;;;5029174;28;20373;-81
2021/11/22 01:31:32;;;;;;;8.93;5.18;;;5.40;99.90;;;;;;5028321;28;20523;-82
2021/11/22 01:33:58;;;;;;;7.68;5.03;;;5.50;99.90;;;;;;5011031;28;20488;-82
2021/11/22 01:36:24;;;;;;;8.70;5.20;;;5.50;99.90;;;;;;5027925;28;20403;-84
2021/11/22 01:38:50;;;;;;;9.30;5.28;;;5.40;99.90;;;;;;5029142;28;20369;-83
2021/11/22 01:41:16;;;;;;;9.10;4.63;;;5.40;99.90;;;;;;5029220;28;20421;-81
2021/11/22 01:43:41;;;;;;;8.10;4.85;;;5.50;99.90;;;;;;5030756;28;20392;-83
2021/11/22 01:46:18;;;;;;;8.40;4.80;;;5.40;99.90;;;;;;5028747;28;20468;-83
2021/11/22 01:48:45;;;;;;;8.90;4.82;;;5.40;99.90;;;;;;4995528;28;20892;-81
2021/11/22 01:51:10;;;;;;;8.43;4.22;;;5.40;99.90;;;;;;5028508;28;21115;-82
2021/11/22 01:53:38;;;;;;;8.38;4.43;;;5.50;99.90;;;;;;5028932;28;20492;-83
2021/11/22 01:56:04;;;;;;;9.93;4.37;;;5.50;99.90;;;;;;5011671;28;20455;-82
2021/11/22 01:58:32;;;;;;;7.30;4.35;;;5.40;99.90;;;;;;5027587;28;20385;-82
2021/11/22 02:00:58;;;;;;;7.70;3.97;;;5.40;99.90;;;;;;5028502;28;20401;-84
2021/11/22 02:03:25;;;;;;;8.05;4.50;;;5.40;99.90;;;;;;5011162;28;20484;-82
2021/11/22 02:05:52;;;;;;;8.10;4.13;;;5.30;99.90;;;;;;5010788;28;20385;-82
2021/11/22 02:08:20;;;;;;;9.48;4.30;;;5.30;99.90;;;;;;5011086;28;20417;-81
2021/11/22 02:10:49;;;;;;;7.45;4.30;;;5.30;99.90;;;;;;5010159;28;20421;-81
2021/11/22 02:13:15;;;;;;;7.00;3.78;;;5.40;99.90;;;;;;5010974;28;20378;-82
2021/11/22 02:15:41;;;;;;;5.77;3.30;;;5.30;99.90;;;;;;5027125;28;20501;-83
2021/11/22 02:18:08;;;;;;;8.30;3.97;;;5.40;99.90;;;;;;5027711;28;20537;-84
2021/11/22 02:20:35;;;;;;;7.05;3.53;;;5.40;99.90;;;;;;5026728;28;20385;-82
2021/11/22 02:23:05;;;;;;;10.48;3.70;;;5.40;99.90;;;;;;5027141;28;20409;-81
2021/11/22 02:25:32;;;;;;;5.07;3.47;;;5.40;99.90;;;;;;5011101;28;20397;-84
2021/11/22 02:28:02;;;;;;;4.75;3.10;;;5.40;99.90;;;;;;5032323;28;20392;-82
2021/11/22 02:30:33;;;;;;;6.97;3.77;;;5.40;99.90;;;;;;5030886;28;21216;-83
2021/11/22 02:33:03;;;;;;;6.22;3.05;;;5.50;99.90;;;;;;5032152;28;20432;-83
2021/11/22 02:35:30;;;;;;;6.27;3.20;;;5.50;99.90;;;;;;5032749;28;20472;-81
2021/11/22 02:37:56;;;;;;;6.10;3.03;;;5.50;99.90;;;;;;5014187;28;20404;-83
2021/11/22 02:40:21;;;;;;;5.47;2.93;;;5.60;99.90;;;;;;5031757;28;20472;-83
2021/11/22 02:42:48;;;;;;;4.63;2.73;;;5.60;99.90;;;;;;5031602;28;20398;-83
2021/11/22 02:45:20;;;;;;;7.28;2.95;;;5.70;99.90;;;;;;5032290;28;20416;-84
2021/11/22 02:47:48;;;;;;;7.05;3.20;;;5.70;99.90;;;;;;5014410;28;20373;-83
2021/11/22 02:50:15;;;;;;;3.90;2.55;;;5.70;99.90;;;;;;5014159;28;20948;-82
2021/11/22 02:52:43;;;;;;;4.25;2.60;;;5.70;99.90;;;;;;5012899;28;20737;-82
2021/11/22 02:55:15;;;;;;;5.32;2.80;;;5.80;99.90;;;;;;5014075;28;20385;-84
2021/11/22 02:57:41;;;;;;;6.38;2.67;;;5.80;99.90;;;;;;5013963;28;20393;-82
2021/11/22 03:00:13;;;;;;;3.00;2.40;;;5.80;99.90;;;;;;5014463;28;20435;-81
2021/11/22 03:02:40;;;;;;;5.30;2.70;;;5.80;99.90;;;;;;4997975;28;20475;-83
2021/11/22 03:05:06;;;;;;;4.90;2.50;;;5.90;99.90;;;;;;5031465;28;20378;-82
2021/11/22 03:07:32;;;;;;;4.60;2.20;;;5.90;99.90;;;;;;5030521;28;20550;-83
2021/11/22 03:09:58;;;;;;;4.35;2.50;;;5.80;99.90;;;;;;5013643;28;20456;-81
2021/11/22 03:12:24;;;;;;;5.10;2.40;;;5.70;99.90;;;;;;5013720;28;20520;-82
2021/11/22 03:14:50;;;;;;;4.83;2.27;;;5.70;99.90;;;;;;5013730;28;20884;-83
2021/11/22 03:17:18;;;;;;;4.75;2.17;;;5.80;99.90;;;;;;5030062;28;20973;-80
2021/11/22 03:19:44;;;;;;;5.75;2.33;;;5.70;99.90;;;;;;5029989;28;20374;-82
2021/11/22 03:22:10;;;;;;;4.18;2.10;;;5.60;99.90;;;;;;5011098;28;20412;-84
2021/11/22 03:24:36;;;;;;;4.28;2.25;;;5.60;99.90;;;;;;5029924;28;20393;-82
2021/11/22 03:27:07;;;;;;;5.85;2.25;;;5.40;99.90;;;;;;5013644;28;20385;-82
2021/11/22 03:29:32;;;;;;;8.88;2.53;;;5.50;99.90;;;;;;5030335;28;20901;-82
2021/11/22 03:31:58;;;;;;;5.13;2.33;;;5.50;99.90;;;;;;5013409;28;20397;-83
2021/11/22 03:34:25;;;;;;;4.45;2.10;;;5.40;99.90;;;;;;5013234;28;20460;-84
2021/11/22 03:36:52;;;;;;;3.42;2.00;;;5.40;99.90;;;;;;5030893;28;20453;-81
2021/11/22 03:39:22;;;;;;;3.67;1.98;;;5.50;99.90;;;;;;5013670;28;20430;-81
2021/11/22 03:41:48;;;;;;;3.25;1.92;;;5.50;99.90;;;;;;5030652;28;20411;-82
2021/11/22 03:44:14;;;;;;;3.97;2.00;;;5.40;99.90;;;;;;5031152;28;20729;-82
2021/11/22 03:46:43;;;;;;;3.67;1.90;;;5.40;99.90;;;;;;5030742;28;20918;-83
2021/11/22 03:49:09;;;;;;;3.35;1.90;;;5.30;99.90;;;;;;5013044;28;20443;-83
2021/11/22 03:51:35;;;;;;;5.45;2.03;;;5.40;99.90;;;;;;5029974;28;20381;-81
2021/11/22 03:54:01;;;;;;;3.22;2.20;;;5.30;99.90;;;;;;5029487;28;20899;-83
2021/11/22 03:56:27;;;;;;;3.72;2.10;;;5.40;99.90;;;;;;5012639;28;20412;-83
2021/11/22 03:59:00;;;;;;;6.13;2.10;;;5.30;99.90;;;;;;5013358;28;20799;-82
2021/11/22 04:01:26;;;;;;;3.83;2.15;;;5.40;99.90;;;;;;5012919;28;20466;-82
2021/11/22 04:03:52;;;;;;;4.28;1.70;;;5.40;99.90;;;;;;5029997;28;20378;-81
2021/11/22 04:06:18;;;;;;;4.22;1.92;;;5.40;99.90;;;;;;5012894;28;20776;-83
2021/11/22 04:08:45;;;;;;;3.10;1.88;;;5.40;99.90;;;;;;5012870;28;21555;-82
2021/11/22 04:11:11;;;;;;;5.17;1.90;;;5.50;99.90;;;;;;5028456;28;20382;-82
2021/11/22 04:13:37;;;;;;;4.88;1.90;;;5.40;99.90;;;;;;5030659;28;20409;-83
2021/11/22 04:16:04;;;;;;;4.70;1.85;;;5.40;99.90;;;;;;5030528;28;20369;-83
2021/11/22 04:18:30;;;;;;;4.45;1.80;;;5.40;99.90;;;;;;5030448;28;20380;-82
2021/11/22 04:20:56;;;;;;;2.88;1.67;;;5.50;99.90;;;;;;5032342;28;20433;-83
2021/11/22 04:23:22;;;;;;;3.92;1.70;;;5.40;99.90;;;;;;5012628;28;20417;-83
2021/11/22 04:25:48;;;;;;;4.10;1.80;;;5.40;99.90;;;;;;5012307;28;20421;-84
2021/11/22 04:28:14;;;;;;;2.38;1.60;;;5.30;99.90;;;;;;5012697;28;20389;-82
2021/11/22 04:30:47;;;;;;;4.27;1.70;;;5.30;99.90;;;;;;5012538;28;20477;-82
2021/11/22 04:33:13;;;;;;;3.42;1.60;;;5.20;99.90;;;;;;5027757;28;20393;-83
2021/11/22 04:35:42;;;;;;;3.35;1.85;;;5.20;99.90;;;;;;5012454;28;20382;-81
2021/11/22 04:38:08;;;;;;;4.13;1.50;;;5.00;99.90;;;;;;5011960;28;20408;-83
2021/11/22 04:40:34;;;;;;;5.05;1.80;;;5.10;99.90;;;;;;5011663;28;20481;-81
2021/11/22 04:43:00;;;;;;;3.67;1.55;;;5.10;99.90;;;;;;5030109;28;20468;-84
2021/11/22 04:45:29;;;;;;;2.15;1.55;;;5.10;99.90;;;;;;5012210;28;20469;-82
2021/11/22 04:48:00;;;;;;;3.53;1.70;;;5.00;99.90;;;;;;5029518;28;20374;-81
2021/11/22 04:50:26;;;;;;;2.70;1.70;;;4.90;99.90;;;;;;5028942;28;20389;-83
2021/11/22 04:52:55;;;;;;;4.27;1.60;;;4.90;99.90;;;;;;5011358;28;20470;-81
2021/11/22 04:55:25;;;;;;;4.20;1.50;;;4.90;99.90;;;;;;5011672;28;20416;-81
2021/11/22 04:57:52;;;;;;;2.80;1.42;;;4.80;99.90;;;;;;5011268;28;20393;-82
2021/11/22 05:00:22;;;;;;;4.85;1.80;;;4.80;99.90;;;;;;5011725;28;20389;-83
2021/11/22 05:02:49;;;;;;;3.38;1.55;;;4.70;99.90;;;;;;5011770;28;20903;-82
2021/11/22 05:05:18;;;;;;;2.70;1.50;;;4.70;99.90;;;;;;5011493;28;20377;-84
2021/11/22 05:07:45;;;;;;;2.65;1.35;;;4.70;99.90;;;;;;5010880;28;20753;-83
2021/11/22 05:10:11;;;;;;;5.20;1.55;;;4.60;99.90;;;;;;5029274;28;20377;-84
2021/11/22 05:12:37;;;;;;;3.35;1.50;;;4.50;99.90;;;;;;5029039;28;20787;-82
2021/11/22 05:15:05;;;;;;;4.32;1.52;;;4.40;99.90;;;;;;5011645;28;20380;-82
2021/11/22 05:17:32;;;;;;;3.55;1.70;;;4.40;99.90;;;;;;5029262;28;20366;-81
2021/11/22 05:19:58;;;;;;;3.60;1.67;;;4.40;99.90;;;;;;5028888;28;20434;-84
2021/11/22 05:22:24;;;;;;;3.03;1.48;;;4.30;99.90;;;;;;5028910;28;20405;-83
2021/11/22 05:24:52;;;;;;;2.60;1.45;;;4.20;99.90;;;;;;5011135;28;20414;-82
2021/11/22 05:27:24;;;;;;;2.85;1.35;;;4.20;99.90;;;;;;5010859;28;20389;-84
2021/11/22 05:29:50;;;;;;;3.28;1.30;;;4.20;99.90;;;;;;5029138;28;20436;-81
2021/11/22 05:32:18;;;;;;;3.30;1.35;;;4.30;99.90;;;;;;5011103;28;20977;-82
2021/11/22 05:34:53;;;;;;;2.83;1.50;;;4.20;99.90;;;;;;5011118;28;20384;-82
2021/11/22 05:37:20;;;;;;;2.83;1.48;;;4.10;99.90;;;;;;5010532;28;20389;-82
2021/11/22 05:39:47;;;;;;;1.63;1.13;;;4.10;99.90;;;;;;5028532;28;20478;-83
2021/11/22 05:42:13;;;;;;;2.38;1.52;;;4.10;99.90;;;;;;5028713;28;20405;-83
2021/11/22 05:44:39;;;;;;;1.88;1.30;;;4.00;99.90;;;;;;5011306;28;20960;-82
2021/11/22 05:47:07;;;;;;;2.38;1.40;;;3.90;99.90;;;;;;5028811;28;20370;-83
2021/11/22 05:49:36;;;;;;;2.53;1.20;;;4.00;99.90;;;;;;5027510;28;20392;-84
2021/11/22 05:52:04;;;;;;;2.70;1.30;;;4.10;99.90;;;;;;5010418;28;20406;-82
2021/11/22 05:54:32;;;;;;;3.30;1.30;;;4.00;99.90;;;;;;5011037;28;20409;-84
2021/11/22 05:56:59;;;;;;;2.35;1.25;;;4.00;99.90;;;;;;5029084;28;20725;-82
2021/11/22 05:59:26;;;;;;;2.63;1.40;;;4.00;99.90;;;;;;5011238;28;20432;-81
2021/11/22 06:01:52;;;;;;;3.42;1.60;;;3.90;99.90;;;;;;5015268;28;20405;-84
2021/11/22 06:04:18;;;;;;;2.50;1.35;;;3.90;99.90;;;;;;5032741;28;20373;-82
2021/11/22 06:06:44;;;;;;;3.45;1.42;;;3.80;99.90;;;;;;5031634;28;20933;-83
2021/11/22 06:09:13;;;;;;;2.20;1.35;;;3.70;99.90;;;;;;5014735;28;20407;-81
2021/11/22 06:11:40;;;;;;;3.28;1.50;;;3.70;99.90;;;;;;5031716;28;20385;-82
2021/11/22 06:14:06;;;;;;;2.72;1.60;;;3.70;99.90;;;;;;5014357;28;20795;-84
2021/11/22 06:16:32;;;;;;;2.50;1.55;;;3.60;99.90;;;;;;5032681;28;20373;-80
2021/11/22 06:18:58;;;;;;;2.50;1.50;;;3.60;99.90;;;;;;5032425;28;20453;-83
2021/11/22 06:21:24;;;;;;;3.55;1.55;;;3.50;99.90;;;;;;5031779;28;20863;-83
2021/11/22 06:23:50;;;;;;;2.35;1.30;;;3.60;99.90;;;;;;4997667;28;20417;-81
2021/11/22 06:26:15;;;;;;;2.85;1.52;;;3.60;99.90;;;;;;5032299;28;20381;-83
2021/11/22 06:28:41;;;;;;;2.95;1.63;;;3.50;99.90;;;;;;5014005;28;20776;-82
2021/11/22 06:31:07;;;;;;;3.33;1.70;;;3.40;99.90;;;;;;5014514;28;20397;-83
2021/11/22 06:33:33;;;;;;;4.75;1.30;;;3.30;99.90;;;;;;5014540;28;20807;-82
2021/11/22 06:35:58;;;;;;;2.70;1.55;;;3.30;99.90;;;;;;5014367;28;20382;-81
2021/11/22 06:38:25;;;;;;;4.40;1.90;;;3.10;99.90;;;;;;5014551;28;20438;-82
2021/11/22 06:40:51;;;;;;;2.95;1.88;;;3.20;99.90;;;;;;5013897;28;20481;-82
2021/11/22 06:43:17;;;;;;;3.25;2.70;;;3.10;99.90;;;;;;5014024;28;20382;-81
2021/11/22 06:45:44;;;;;;;4.43;2.53;;;2.90;99.90;;;;;;5027008;28;20377;-84
2021/11/22 06:48:09;;;;;;;4.82;2.63;;;2.90;99.90;;;;;;5009065;28;20448;-83
2021/11/22 06:50:38;;;;;;;4.90;2.30;;;2.80;99.90;;;;;;5031219;28;20398;-82
2021/11/22 06:53:04;;;;;;;3.75;2.15;;;2.70;99.90;;;;;;5031628;28;20431;-83
2021/11/22 06:55:30;;;;;;;5.22;2.22;;;2.70;99.90;;;;;;5009591;28;20395;-82
2021/11/22 06:57:56;;;;;;;5.07;2.47;;;2.70;99.90;;;;;;5024900;28;20398;-82
2021/11/22 07:00:22;;;;;;;4.50;2.53;;;2.60;99.90;;;;;;5010625;28;21234;-81
2021/11/22 07:02:51;;;;;;;4.10;2.30;;;2.60;99.90;;;;;;5005953;28;20466;-81
2021/11/22 07:05:22;;;;;;;5.38;2.53;;;2.60;99.90;;;;;;5012001;28;20419;-83
2021/11/22 07:07:49;;;;;;;3.63;2.00;;;2.60;99.90;;;;;;5029844;28;20398;-83
2021/11/22 07:10:16;;;;;;;3.97;2.10;;;2.80;99.90;;;;;;5018822;28;20402;-83
2021/11/22 07:12:42;;;;;;;5.55;2.10;;;2.90;99.90;;;;;;5013344;28;20430;-83
2021/11/22 07:15:09;;;;;;;4.82;2.10;;;2.90;99.90;;;;;;5014119;28;20407;-82
2021/11/22 07:17:35;;;;;;;4.63;2.20;;;3.10;99.90;;;;;;5029435;28;20381;-83
2021/11/22 07:20:01;;;;;;;3.78;2.00;;;3.10;99.90;;;;;;4997874;28;20440;-82
2021/11/22 07:22:27;;;;;;;3.97;2.10;;;3.10;99.90;;;;;;5024063;28;20401;-83
2021/11/22 07:24:53;;;;;;;3.83;1.90;;;2.90;99.90;;;;;;5019920;28;20409;-81
2021/11/22 07:27:24;;;;;;;5.13;2.28;;;3.10;99.90;;;;;;5021029;28;20388;-82
2021/11/22 07:29:50;;;;;;;4.10;2.15;;;3.00;99.90;;;;;;5012804;28;20534;-83
2021/11/22 07:32:16;;;;;;;4.05;2.05;;;3.10;99.90;;;;;;5010747;28;20398;-81
2021/11/22 07:34:42;;;;;;;3.25;1.90;;;2.90;99.90;;;;;;5022845;28;20468;-83
2021/11/22 07:37:09;;;;;;;3.83;2.53;;;3.00;99.90;;;;;;5010356;28;20488;-81
2021/11/22 07:39:35;;;;;;;2.38;2.17;;;2.90;99.90;;;;;;5010448;28;20401;-83
2021/11/22 07:42:01;;;;;;;4.68;2.10;;;3.10;99.90;;;;;;5011243;28;20904;-83
2021/11/22 07:44:27;;;;;;;3.30;1.88;;;3.10;99.90;;;;;;5030575;28;20385;-83
2021/11/22 07:46:53;;;;;;;4.53;2.20;;;3.10;99.90;;;;;;5030782;28;20382;-83
2021/11/22 07:49:19;;;;;;;6.50;2.47;;;3.10;99.90;;;;;;5030804;28;20472;-83
2021/11/22 07:51:45;;;;;;;4.88;2.90;;;3.30;99.90;;;;;;5030534;28;20500;-82
2021/11/22 07:54:11;;;;;;;5.50;2.53;;;3.30;99.90;;;;;;5030353;28;20428;-82
2021/11/22 07:56:37;;;;;;;3.17;2.20;;;3.40;99.90;;;;;;5030567;28;20374;-82
2021/11/22 07:59:03;;;;;;;4.55;2.13;;;3.50;99.90;;;;;;5012649;28;20405;-81
2021/11/22 08:01:29;;;;;;;3.30;2.05;;;3.40;99.90;;;;;;5030256;28;20566;-81
2021/11/22 08:03:54;;;;;;;2.85;2.00;;;3.50;99.90;;;;;;5012419;28;20424;-82
2021/11/22 08:06:20;;;;;;;2.95;1.85;;;3.50;99.90;;;;;;5028555;28;20475;-82
2021/11/22 08:08:46;;;;;;;4.28;1.98;;;3.60;99.90;;;;;;5028938;28;20469;-84
2021/11/22 08:13:38;;;;;;;2.22;1.80;;;3.60;99.90;;;;;;5030286;28;20798;-82
2021/11/22 08:16:07;;;;;;;3.25;1.60;;;3.70;99.90;;;;;;5012280;28;20416;-82
2021/11/22 08:18:33;;;;;;;5.43;2.20;;;3.80;99.90;;;;;;5011786;28;20421;-83
2021/11/22 08:20:59;;;;;;;2.47;1.67;;;3.70;99.90;;;;;;5030108;28;20801;-82
2021/11/22 08:23:25;;;;;;;3.13;1.63;;;3.80;99.90;;;;;;5011186;28;20480;-82
2021/11/22 08:25:51;;;;;;;1.90;1.70;;;4.10;99.90;;;;;;5029886;28;20417;-81
2021/11/22 08:28:18;;;;;;;2.03;1.60;;;4.20;99.90;;;;;;5030170;28;20428;-83
2021/11/22 08:30:44;;;;;;;2.03;1.50;;;4.20;99.90;;;;;;5011531;28;20978;-84
2021/11/22 08:33:13;;;;;;;2.17;1.67;;;4.30;99.90;;;;;;5028550;28;20422;-83
2021/11/22 08:35:39;;;;;;;4.43;2.20;;;4.40;99.90;;;;;;5028114;28;20382;-82
2021/11/22 08:38:05;;;;;;;1.73;1.35;;;4.40;99.90;;;;;;5028972;28;20373;-80
2021/11/22 08:40:33;;;;;;;1.48;1.35;;;4.60;99.90;;;;;;5027926;28;20748;-83
2021/11/22 08:42:59;;;;;;;1.83;1.25;;;4.60;99.90;;;;;;5029069;28;20946;-81
2021/11/22 08:45:25;;;;;;;1.83;1.40;;;4.70;99.90;;;;;;5029972;28;20382;-83
2021/11/22 08:47:51;;;;;;;2.63;1.23;;;4.70;99.90;;;;;;5002809;28;20440;-82
2021/11/22 08:50:18;;;;;;;1.60;1.20;;;4.80;99.90;;;;;;5010054;28;20382;-82
2021/11/22 08:52:44;;;;;;;2.38;1.20;;;4.80;99.90;;;;;;5013764;28;20391;-82
2021/11/22 08:55:11;;;;;;;2.03;1.02;;;4.90;99.90;;;;;;5010971;28;20397;-82
2021/11/22 08:57:39;;;;;;;2.53;1.07;;;5.00;99.90;;;;;;5027514;28;20865;-84
2021/11/22 09:00:11;;;;;;;2.08;1.20;;;5.10;99.90;;;;;;5011074;28;20400;-84
2021/11/22 09:02:37;;;;;;;2.53;1.10;;;5.20;99.90;;;;;;5027917;28;20401;-84
2021/11/22 09:05:03;;;;;;;1.92;1.00;;;5.30;99.90;;;;;;5028384;28;20378;-84
2021/11/22 09:07:29;;;;;;;1.48;1.02;;;5.30;99.90;;;;;;5011047;28;20487;-83
2021/11/22 09:09:55;;;;;;;1.85;0.95;;;5.30;99.90;;;;;;5011123;28;20841;-85
2021/11/22 09:12:22;;;;;;;1.80;0.90;;;5.30;99.90;;;;;;5023154;28;20408;-84
2021/11/22 09:14:49;;;;;;;1.65;1.10;;;5.40;99.90;;;;;;5006497;28;20432;-84
2021/11/22 09:17:17;;;;;;;1.40;1.13;;;5.50;99.90;;;;;;5030294;28;20887;-84
2021/11/22 09:19:45;;;;;;;1.60;1.00;;;5.60;99.90;;;;;;5014035;28;20479;-81
2021/11/22 09:22:12;;;;;;;2.65;0.98;;;5.60;99.90;;;;;;5014627;28;20827;-84
2021/11/22 09:24:39;;;;;;;1.58;0.90;;;5.70;99.90;;;;;;5014340;28;22083;-83
2021/11/22 09:27:06;;;;;;;1.48;1.08;;;5.80;99.90;;;;;;5025797;28;20412;-84
2021/11/22 09:29:32;;;;;;;1.45;0.85;;;5.80;99.90;;;;;;5025552;28;20377;-83
2021/11/22 09:31:58;;;;;;;1.65;1.00;;;5.90;99.90;;;;;;5024845;28;20443;-84
2021/11/22 09:34:24;;;;;;;1.52;0.93;;;5.90;99.90;;;;;;5014589;28;20385;-84
2021/11/22 09:36:50;;;;;;;2.10;1.27;;;6.00;99.90;;;;;;5026838;28;20373;-82
2021/11/22 09:39:18;;;;;;;2.30;1.30;;;6.00;99.90;;;;;;5024960;28;20393;-82
2021/11/22 09:41:47;;;;;;;1.52;1.08;;;6.20;99.90;;;;;;5014847;28;20417;-85
2021/11/22 09:44:14;;;;;;;2.03;1.00;;;6.20;99.90;;;;;;5014120;28;20953;-83
2021/11/22 09:46:40;;;;;;;1.33;1.02;;;6.20;99.90;;;;;;5013523;28;20810;-84
2021/11/22 09:49:07;;;;;;;3.70;1.23;;;6.30;99.90;;;;;;5026823;28;20393;-80
2021/11/22 09:51:34;;;;;;;2.33;1.38;;;6.30;99.90;;;;;;5016367;28;20487;-83
2021/11/22 09:54:00;;;;;;;1.75;1.10;;;6.30;99.90;;;;;;5029975;28;20500;-83
2021/11/22 09:56:26;;;;;;;1.30;0.90;;;6.30;99.90;;;;;;5028051;28;20496;-82
2021/11/22 09:58:52;;;;;;;1.50;0.90;;;6.30;99.90;;;;;;5010506;28;20535;-83
2021/11/22 10:01:19;;;;;;;1.70;1.00;;;6.30;99.90;;;;;;5009999;28;21134;-84
2021/11/22 10:04:04;;;;;;;1.77;0.80;;;6.50;99.90;;;;;;5010231;28;20390;-83
2021/11/22 10:06:52;;;;;;;2.00;1.10;;;6.50;99.90;;;;;;5010728;28;20911;-83
2021/11/22 10:09:31;;;;;;;1.70;0.80;;;6.40;99.90;;;;;;5028006;28;20451;-85
2021/11/22 10:11:59;;;;;;;3.40;1.17;;;6.40;99.90;;;;;;5027381;28;20405;-83
2021/11/22 10:14:34;;;;;;;2.05;1.30;;;6.40;99.90;;;;;;5029377;28;20457;-81
2021/11/22 10:17:00;;;;;;;2.05;0.80;;;6.20;99.90;;;;;;5028692;28;20404;-83
2021/11/22 10:19:26;;;;;;;1.92;1.02;;;6.10;99.90;;;;;;5028826;28;20439;-83
2021/11/22 10:21:52;;;;;;;0.90;0.80;;;6.10;99.90;;;;;;5010104;28;20405;-82
2021/11/22 10:24:18;;;;;;;0.85;0.80;;;6.20;99.90;;;;;;5028316;28;20381;-83
2021/11/22 10:26:47;;;;;;;2.47;0.90;;;6.40;99.90;;;;;;5027792;28;20566;-83
2021/11/22 10:29:24;;;;;;;2.13;0.70;;;6.50;99.90;;;;;;5027838;28;20860;-81
2021/11/22 10:31:57;;;;;;;1.30;1.10;;;6.60;99.90;;;;;;5027950;28;20385;-83
2021/11/22 10:34:23;;;;;;;1.40;1.00;;;6.60;99.90;;;;;;5028312;28;20378;-84
2021/11/22 10:37:00;;;;;;;1.25;0.95;;;6.70;99.90;;;;;;5028990;28;20464;-80
2021/11/22 10:39:28;;;;;;;2.42;0.95;;;6.50;99.90;;;;;;5028506;28;20748;-80
2021/11/22 10:41:53;;;;;;;1.70;1.00;;;6.30;99.90;;;;;;5027890;28;21028;-84
2021/11/22 10:44:19;;;;;;;2.30;0.90;;;6.20;99.90;;;;;;5011207;28;20378;-80
2021/11/22 10:46:54;;;;;;;1.35;0.93;;;6.20;99.90;;;;;;5028284;28;20374;-81
2021/11/22 10:49:31;;;;;;;1.15;0.80;;;6.40;99.90;;;;;;5013961;28;20473;-81
2021/11/22 10:52:35;;;;;;;1.70;0.80;;;6.30;99.90;;;;;;5012914;28;20386;-82
2021/11/22 10:55:09;;;;;;;5.43;1.00;;;6.50;99.90;;;;;;5031816;28;20447;-83
2021/11/22 10:57:40;;;;;;;2.10;0.90;;;6.60;99.90;;;;;;5013026;28;20400;-82
2021/11/22 11:00:20;;;;;;;1.00;0.75;;;6.70;99.90;;;;;;5013393;28;20374;-83
2021/11/22 11:02:47;;;;;;;2.38;0.95;;;6.70;99.90;;;;;;5013604;28;20413;-82
2021/11/22 11:05:37;;;;;;;0.80;0.80;;;6.60;99.90;;;;;;5014082;28;20404;-81
2021/11/22 11:08:10;;;;;;;1.05;0.80;;;6.70;99.90;;;;;;5013577;28;20428;-81
2021/11/22 11:10:37;;;;;;;7.93;1.38;;;6.80;99.90;;;;;;5013518;28;20440;-84
2021/11/22 11:13:07;;;;;;;1.00;0.80;;;6.90;99.90;;;;;;5013193;28;20488;-81
2021/11/22 11:15:34;;;;;;;2.70;1.30;;;7.00;99.90;;;;;;5028518;28;20421;-81
2021/11/22 11:18:01;;;;;;;1.40;0.60;;;6.90;99.90;;;;;;5011055;28;20385;-81
2021/11/22 11:20:29;;;;;;;5.78;1.15;;;6.80;99.90;;;;;;5028355;28;20417;-82
2021/11/22 11:22:58;;;;;;;1.00;0.80;;;6.80;99.90;;;;;;5028062;28;20405;-82
2021/11/22 11:25:26;;;;;;;1.00;0.77;;;6.80;99.90;;;;;;5028299;28;20385;-80
2021/11/22 11:27:52;;;;;;;3.00;0.73;;;6.70;99.90;;;;;;5013724;28;20888;-81
2021/11/22 11:30:20;;;;;;;6.15;1.05;;;6.60;99.90;;;;;;5025095;28;20396;-85
2021/11/22 11:32:49;;;;;;;2.15;0.80;;;6.70;99.90;;;;;;5024792;28;20425;-83
2021/11/22 11:35:18;;;;;;;1.75;0.60;;;6.90;99.90;;;;;;5014358;28;20448;-80
2021/11/22 11:38:04;;;;;;;1.88;0.90;;;7.00;99.90;;;;;;5010436;28;20386;-84
2021/11/22 11:41:09;;;;;;;4.03;0.80;;;7.00;99.90;;;;;;5025773;28;20476;-81
2021/11/22 11:44:14;;;;;;;4.55;0.88;;;6.90;99.90;;;;;;5014813;28;20401;-84
2021/11/22 11:47:10;;;;;;;0.88;0.77;;;7.10;99.90;;;;;;5030571;28;20463;-81
2021/11/22 11:49:37;;;;;;;3.33;0.70;;;7.20;99.90;;;;;;5025197;28;20382;-81
2021/11/22 11:52:29;;;;;;;1.52;0.60;;;7.20;99.90;;;;;;5026177;28;20433;-80
2021/11/22 11:54:56;;;;;;;1.30;0.77;;;7.20;99.90;;;;;;5025466;28;20417;-82
2021/11/22 11:57:28;;;;;;;1.00;0.60;;;7.00;99.90;;;;;;5024233;28;20429;-82
2021/11/22 11:59:54;;;;;;;0.52;0.50;;;6.90;99.90;;;;;;5011540;28;20396;-82
2021/11/22 12:02:27;;;;;;;1.08;0.70;;;6.80;99.90;;;;;;5024312;28;20500;-83
2021/11/22 12:05:08;;;;;;;2.65;0.80;;;6.80;99.90;;;;;;5014972;28;20924;-84
2021/11/22 12:07:36;;;;;;;1.58;0.75;;;6.90;99.90;;;;;;5025472;28;20472;-82
2021/11/22 12:10:34;;;;;;;1.83;0.70;;;6.90;99.90;;;;;;5010286;28;20432;-81
2021/11/22 12:13:00;;;;;;;2.00;0.70;;;7.10;99.90;;;;;;5021725;28;20453;-84
2021/11/22 12:15:32;;;;;;;0.80;0.80;;;7.20;99.90;;;;;;5002712;28;20458;-85
2021/11/22 12:18:04;;;;;;;3.63;0.70;;;7.10;99.90;;;;;;5012683;28;20433;-84
2021/11/22 12:20:36;;;;;;;1.67;0.80;;;7.10;99.90;;;;;;5025193;28;20447;-81
2021/11/22 12:23:04;;;;;;;1.42;0.75;;;7.10;99.90;;;;;;5041437;28;20451;-82
2021/11/22 12:25:42;;;;;;;1.00;0.77;;;7.00;99.90;;;;;;5014611;28;20416;-83
2021/11/22 12:28:23;;;;;;;2.13;0.88;;;7.10;99.90;;;;;;5038506;28;20395;-83
2021/11/22 12:31:30;;;;;;;0.77;0.70;;;7.20;99.90;;;;;;5028779;28;20435;-80
2021/11/22 12:34:07;;;;;;;3.25;0.90;;;7.50;99.90;;;;;;5021252;28;20397;-81
2021/11/22 12:36:42;;;;;;;1.42;0.80;;;7.70;99.90;;;;;;5042153;28;20438;-82
2021/11/22 12:39:20;;;;;;;0.80;0.77;;;7.70;99.90;;;;;;5030329;28;20390;-81
2021/11/22 12:41:46;;;;;;;0.67;0.60;;;7.70;99.90;;;;;;5020385;28;21753;-82
2021/11/22 12:44:17;;;;;;;0.93;0.70;;;7.20;99.90;;;;;;5039434;28;20410;-82
2021/11/22 12:46:58;;;;;;;0.93;0.60;;;6.80;99.90;;;;;;5012232;28;20884;-84
2021/11/22 12:49:31;;;;;;;0.65;0.47;;;6.70;99.90;;;;;;5022267;28;20432;-83
2021/11/22 12:52:10;;;;;;;2.35;0.73;;;6.60;99.90;;;;;;5029835;28;20374;-84
2021/11/22 12:54:46;;;;;;;1.25;0.60;;;6.60;99.90;;;;;;5042526;28;20885;-83
2021/11/22 12:57:48;;;;;;;1.35;0.60;;;6.70;99.90;;;;;;5008655;28;20396;-82
2021/11/22 13:00:33;;;;;;;0.50;0.50;;;6.70;99.90;;;;;;4994136;28;20393;-84
2021/11/22 13:02:58;;;;;;;0.77;0.50;;;6.80;99.90;;;;;;4977532;28;20762;-82
2021/11/22 13:05:46;;;;;;;0.90;0.63;;;6.70;99.90;;;;;;4963580;28;20398;-84